createdAt,value
2023-04-27T00:02:15.922Z,5.80
2023-04-27T00:04:44.673Z,5.50
2023-04-27T00:07:13.196Z,5.50
2023-04-27T00:09:40.984Z,5.40
2023-04-27T00:12:08.937Z,5.40
2023-04-27T00:14:36.771Z,5.40
2023-04-27T00:17:06.237Z,5.40
2023-04-27T00:19:34.737Z,5.40
2023-04-27T00:22:02.569Z,5.40
2023-04-27T00:24:30.517Z,5.40
2023-04-27T00:26:58.328Z,5.40
2023-04-27T00:29:26.158Z,5.40
2023-04-27T00:31:54.071Z,5.40
2023-04-27T00:34:23.230Z,5.40
2023-04-27T00:36:51.277Z,5.40
2023-04-27T00:39:19.122Z,5.40
2023-04-27T00:41:46.901Z,5.40
2023-04-27T00:44:14.737Z,5.40
2023-04-27T00:46:42.527Z,5.40
2023-04-27T00:49:10.370Z,5.40
2023-04-27T00:51:39.514Z,5.40
2023-04-27T00:54:07.492Z,5.40
2023-04-27T00:56:35.776Z,5.40
2023-04-27T00:59:03.651Z,5.40
2023-04-27T01:01:31.565Z,5.30
2023-04-27T01:03:59.585Z,5.20
2023-04-27T01:06:29.658Z,5.20
2023-04-27T01:08:58.877Z,5.10
2023-04-27T01:11:26.727Z,5.00
2023-04-27T01:13:56.951Z,5.00
2023-04-27T01:16:24.815Z,4.90
2023-04-27T01:18:52.632Z,4.80
2023-04-27T01:21:21.728Z,4.70
2023-04-27T01:23:50.929Z,4.60
2023-04-27T01:26:18.786Z,4.60
2023-04-27T01:28:46.908Z,4.60
2023-04-27T01:31:15.060Z,4.50
2023-04-27T01:33:43.355Z,4.50
2023-04-27T01:36:11.695Z,4.50
2023-04-27T01:38:39.514Z,4.50
2023-04-27T01:41:09.318Z,4.50
2023-04-27T01:43:38.031Z,4.50
2023-04-27T01:46:09.569Z,4.60
2023-04-27T01:48:37.830Z,4.70
2023-04-27T01:51:05.668Z,4.70
2023-04-27T01:53:33.425Z,4.80
2023-04-27T01:56:01.705Z,4.80
2023-04-27T01:58:30.974Z,4.90
2023-04-27T02:00:58.758Z,5.00
2023-04-27T02:03:26.779Z,5.00
2023-04-27T02:05:54.900Z,5.10
2023-04-27T02:08:22.691Z,5.10
2023-04-27T02:10:50.448Z,5.00
2023-04-27T02:13:18.352Z,4.90
2023-04-27T02:15:47.582Z,4.80
2023-04-27T02:18:15.964Z,4.80
2023-04-27T02:20:43.844Z,4.80
2023-04-27T02:23:11.672Z,4.80
2023-04-27T02:25:42.804Z,4.80
2023-04-27T02:28:10.626Z,4.80
2023-04-27T02:30:38.868Z,4.80
2023-04-27T02:33:08.083Z,4.80
2023-04-27T02:35:35.934Z,4.80
2023-04-27T02:38:03.736Z,4.80
2023-04-27T02:40:31.524Z,4.80
2023-04-27T02:42:59.308Z,4.80
2023-04-27T02:45:27.131Z,4.80
2023-04-27T02:47:54.978Z,4.90
2023-04-27T02:50:24.098Z,4.90
2023-04-27T02:52:51.876Z,5.00
2023-04-27T02:55:21.438Z,5.00
2023-04-27T02:57:49.234Z,5.00
2023-04-27T03:00:18.881Z,5.00
2023-04-27T03:02:47.364Z,5.00
2023-04-27T03:05:15.259Z,5.10
2023-04-27T03:07:44.460Z,5.10
2023-04-27T03:10:12.379Z,5.10
2023-04-27T03:12:40.199Z,5.10
2023-04-27T03:15:09.064Z,5.20
2023-04-27T03:17:36.887Z,5.20
2023-04-27T03:20:08.570Z,5.30
2023-04-27T03:22:36.503Z,5.30
2023-04-27T03:25:06.828Z,5.30
2023-04-27T03:27:34.625Z,5.30
2023-04-27T03:30:03.495Z,5.40
2023-04-27T03:32:31.441Z,5.40
2023-04-27T03:34:59.283Z,5.40
2023-04-27T03:37:27.689Z,5.50
2023-04-27T03:39:55.492Z,5.50
2023-04-27T03:42:24.623Z,5.50
2023-04-27T03:44:52.430Z,5.50
2023-04-27T03:47:20.238Z,5.50
2023-04-27T03:49:48.055Z,5.50
2023-04-27T03:52:15.839Z,5.50
2023-04-27T03:54:43.647Z,5.40
2023-04-27T03:57:11.529Z,5.40
2023-04-27T03:59:40.666Z,5.50
2023-04-27T04:02:09.623Z,5.50
2023-04-27T04:04:37.578Z,5.50
2023-04-27T04:07:05.899Z,5.50
2023-04-27T04:09:33.801Z,5.50
2023-04-27T04:12:01.898Z,5.50
2023-04-27T04:14:29.676Z,5.50
2023-04-27T04:16:58.826Z,5.50
2023-04-27T04:19:26.797Z,5.50
2023-04-27T04:21:57.033Z,5.50
2023-04-27T04:24:25.037Z,5.50
2023-04-27T04:26:52.850Z,5.60
2023-04-27T04:29:21.871Z,5.60
2023-04-27T04:31:49.829Z,5.50
2023-04-27T04:34:19.467Z,5.50
2023-04-27T04:36:47.249Z,5.50
2023-04-27T04:39:15.941Z,5.60
2023-04-27T04:41:44.026Z,5.60
2023-04-27T04:44:11.836Z,5.70
2023-04-27T04:46:39.771Z,5.70
2023-04-27T04:49:07.619Z,5.80
2023-04-27T04:51:36.883Z,5.90
2023-04-27T04:54:04.789Z,6.00
2023-04-27T04:56:32.651Z,6.00
2023-04-27T04:59:00.767Z,6.10
2023-04-27T05:01:28.637Z,6.10
2023-04-27T05:03:56.644Z,6.10
2023-04-27T05:06:24.700Z,6.20
2023-04-27T05:08:53.881Z,6.30
2023-04-27T05:11:22.137Z,6.40
2023-04-27T05:13:49.929Z,6.40
2023-04-27T05:16:17.863Z,6.50
2023-04-27T05:18:45.724Z,6.70
2023-04-27T05:21:17.605Z,6.80
2023-04-27T05:23:45.412Z,6.90
2023-04-27T05:26:15.383Z,7.00
2023-04-27T05:28:43.708Z,7.10
2023-04-27T05:31:11.845Z,7.20
2023-04-27T05:33:39.632Z,7.30
2023-04-27T05:36:07.835Z,7.40
2023-04-27T05:38:37.441Z,7.40
2023-04-27T05:41:05.288Z,7.50
2023-04-27T05:43:35.079Z,7.60
2023-04-27T05:46:03.020Z,7.70
2023-04-27T05:48:31.165Z,7.90
2023-04-27T05:51:02.841Z,8.10
2023-04-27T05:53:30.751Z,8.10
2023-04-27T05:55:59.358Z,8.10
2023-04-27T05:58:27.369Z,8.10
2023-04-27T06:00:57.208Z,8.10
2023-04-27T06:03:25.177Z,7.90
2023-04-27T06:05:58.171Z,8.10
2023-04-27T06:08:27.039Z,8.20
2023-04-27T06:10:55.327Z,8.20
2023-04-27T06:13:23.214Z,8.30
2023-04-27T06:15:51.099Z,8.70
2023-04-27T06:18:20.270Z,8.90
2023-04-27T06:20:48.060Z,9.00
2023-04-27T06:23:15.930Z,9.10
2023-04-27T06:25:43.754Z,8.90
2023-04-27T06:28:11.829Z,9.00
2023-04-27T06:30:39.926Z,8.70
2023-04-27T06:33:07.767Z,9.00
2023-04-27T06:35:36.924Z,9.00
2023-04-27T06:38:07.334Z,9.00
2023-04-27T06:40:36.260Z,9.20
2023-04-27T06:43:04.798Z,9.30
2023-04-27T06:45:32.609Z,9.30
2023-04-27T06:48:00.788Z,9.70
2023-04-27T06:50:29.233Z,9.80
2023-04-27T06:52:58.523Z,9.80
2023-04-27T06:55:26.399Z,9.90
2023-04-27T06:57:54.225Z,9.90
2023-04-27T07:00:22.741Z,9.90
2023-04-27T07:02:50.725Z,10.00
2023-04-27T07:05:18.671Z,9.80
2023-04-27T07:07:46.484Z,9.80
2023-04-27T07:10:15.886Z,9.70
2023-04-27T07:12:44.028Z,9.90
2023-04-27T07:15:12.291Z,10.00
2023-04-27T07:17:40.124Z,9.90
2023-04-27T07:20:09.431Z,9.90
2023-04-27T07:22:37.470Z,9.90
2023-04-27T07:25:06.319Z,10.20
2023-04-27T07:27:35.703Z,10.40
2023-04-27T07:30:03.608Z,10.30
2023-04-27T07:32:31.562Z,10.30
2023-04-27T07:34:59.548Z,10.40
2023-04-27T07:37:28.765Z,10.50
2023-04-27T07:39:56.633Z,10.50
2023-04-27T07:42:25.084Z,10.60
2023-04-27T07:44:54.314Z,10.70
2023-04-27T07:47:22.186Z,10.80
2023-04-27T07:49:50.160Z,10.90
2023-04-27T07:52:17.984Z,11.00
2023-04-27T07:54:45.797Z,10.40
2023-04-27T07:57:13.605Z,10.70
2023-04-27T07:59:41.822Z,11.10
2023-04-27T08:02:18.490Z,11.50
2023-04-27T08:04:48.372Z,11.50
2023-04-27T08:07:17.637Z,11.50
2023-04-27T08:09:45.895Z,11.50
2023-04-27T08:12:13.775Z,11.80
2023-04-27T08:14:41.559Z,12.10
2023-04-27T08:17:11.360Z,12.40
2023-04-27T08:19:39.759Z,12.60
2023-04-27T08:22:08.463Z,12.90
2023-04-27T08:24:36.323Z,13.10
2023-04-27T08:27:04.370Z,12.50
2023-04-27T08:29:32.393Z,12.10
2023-04-27T08:32:01.766Z,11.50
2023-04-27T08:34:31.952Z,11.70
2023-04-27T08:37:00.387Z,12.00
2023-04-27T08:39:28.792Z,12.00
2023-04-27T08:41:56.827Z,12.10
2023-04-27T08:44:24.683Z,12.50
2023-04-27T08:46:52.714Z,12.90
2023-04-27T08:49:21.785Z,13.20
2023-04-27T08:51:51.146Z,13.20
2023-04-27T08:54:20.525Z,12.70
2023-04-27T08:56:48.328Z,12.80
2023-04-27T08:59:17.798Z,13.50
2023-04-27T09:01:47.027Z,13.60
2023-04-27T09:04:15.868Z,12.60
2023-04-27T09:06:43.954Z,12.40
2023-04-27T09:09:23.151Z,12.70
2023-04-27T09:11:51.306Z,13.00
2023-04-27T09:14:21.381Z,13.60
2023-04-27T09:16:57.392Z,13.30
2023-04-27T09:19:26.320Z,13.70
2023-04-27T09:22:05.331Z,14.10
2023-04-27T09:24:34.665Z,14.10
2023-04-27T09:27:03.198Z,13.20
2023-04-27T09:29:34.796Z,13.40
2023-04-27T09:32:03.667Z,14.10
2023-04-27T09:34:41.047Z,14.60
2023-04-27T09:37:09.854Z,15.50
2023-04-27T09:39:39.593Z,15.30
2023-04-27T09:42:08.450Z,15.10
2023-04-27T09:44:37.063Z,15.70
2023-04-27T09:47:05.971Z,15.30
2023-04-27T09:49:36.189Z,15.20
2023-04-27T09:52:04.277Z,14.90
2023-04-27T09:54:35.174Z,14.80
2023-04-27T09:57:17.349Z,15.50
2023-04-27T10:00:10.906Z,15.90
2023-04-27T10:02:53.154Z,16.30
2023-04-27T10:05:35.970Z,16.60
2023-04-27T10:08:05.220Z,16.60
2023-04-27T10:10:43.764Z,16.90
2023-04-27T10:13:22.367Z,16.50
2023-04-27T10:15:50.552Z,14.30
2023-04-27T10:18:28.525Z,14.90
2023-04-27T10:20:56.349Z,15.50
2023-04-27T10:23:25.259Z,14.80
2023-04-27T10:25:54.312Z,14.70
2023-04-27T10:28:23.469Z,15.70
2023-04-27T10:30:51.980Z,15.20
2023-04-27T10:33:22.757Z,15.30
2023-04-27T10:35:58.085Z,16.20
2023-04-27T10:38:29.956Z,16.70
2023-04-27T10:41:01.530Z,16.40
2023-04-27T10:43:32.914Z,16.20
2023-04-27T10:46:11.610Z,16.60
2023-04-27T10:48:40.688Z,16.20
2023-04-27T10:51:08.630Z,15.80
2023-04-27T10:53:36.846Z,16.10
2023-04-27T10:56:07.092Z,16.70
2023-04-27T10:58:48.215Z,16.80
2023-04-27T11:01:25.130Z,15.60
2023-04-27T11:03:56.344Z,14.90
2023-04-27T11:06:24.287Z,15.20
2023-04-27T11:08:52.178Z,15.40
2023-04-27T11:11:20.583Z,15.40
2023-04-27T11:13:52.744Z,15.60
2023-04-27T11:16:20.849Z,16.40
2023-04-27T11:18:48.809Z,16.50
2023-04-27T11:21:18.948Z,16.90
2023-04-27T11:23:46.849Z,16.80
2023-04-27T11:26:16.368Z,16.80
2023-04-27T11:28:45.013Z,15.70
2023-04-27T11:31:14.231Z,15.90
2023-04-27T11:33:49.403Z,16.60
2023-04-27T11:36:18.176Z,17.00
2023-04-27T11:38:46.155Z,17.10
2023-04-27T11:41:14.382Z,16.60
2023-04-27T11:43:43.420Z,16.30
2023-04-27T11:46:12.267Z,16.40
2023-04-27T11:48:41.536Z,16.60
2023-04-27T11:51:11.943Z,16.70
2023-04-27T11:53:40.780Z,17.20
2023-04-27T11:56:11.078Z,17.30
2023-04-27T11:58:40.426Z,17.50
2023-04-27T12:01:10.092Z,18.00
2023-04-27T12:03:38.410Z,17.20
2023-04-27T12:06:27.771Z,17.20
2023-04-27T12:08:56.970Z,17.80
2023-04-27T12:11:25.618Z,18.00
2023-04-27T12:13:53.748Z,17.90
2023-04-27T12:16:22.905Z,18.30
2023-04-27T12:18:51.668Z,17.80
2023-04-27T12:21:21.311Z,17.60
2023-04-27T12:23:49.401Z,17.50
2023-04-27T12:26:17.274Z,16.80
2023-04-27T12:28:45.104Z,16.50
2023-04-27T12:31:16.941Z,16.70
2023-04-27T12:33:44.770Z,16.60
2023-04-27T12:36:12.562Z,16.10
2023-04-27T12:38:41.986Z,15.60
2023-04-27T12:41:09.872Z,15.70
2023-04-27T12:43:38.222Z,16.10
2023-04-27T12:46:06.100Z,16.20
2023-04-27T12:48:34.439Z,15.70
2023-04-27T12:51:02.583Z,16.20
2023-04-27T12:53:30.473Z,17.10
2023-04-27T12:56:01.937Z,17.20
2023-04-27T12:58:29.849Z,17.50
2023-04-27T13:00:58.786Z,18.00
2023-04-27T13:03:26.705Z,18.30
2023-04-27T13:05:54.744Z,18.10
2023-04-27T13:08:22.560Z,18.20
2023-04-27T13:10:50.461Z,18.00
2023-04-27T13:13:19.630Z,17.90
2023-04-27T13:15:47.564Z,17.80
2023-04-27T13:18:15.584Z,18.00
2023-04-27T13:20:44.083Z,17.60
2023-04-27T13:23:11.915Z,17.60
2023-04-27T13:25:39.804Z,17.70
2023-04-27T13:28:07.728Z,17.80
2023-04-27T13:30:36.853Z,18.10
2023-04-27T13:33:21.017Z,18.30
2023-04-27T13:35:51.119Z,18.50
2023-04-27T13:38:19.049Z,18.10
2023-04-27T13:40:46.890Z,18.10
2023-04-27T13:43:14.687Z,18.10
2023-04-27T13:45:45.491Z,18.20
2023-04-27T13:48:13.313Z,18.30
2023-04-27T13:50:41.213Z,17.80
2023-04-27T13:53:09.035Z,18.30
2023-04-27T13:55:37.242Z,18.10
2023-04-27T13:58:05.766Z,17.30
2023-04-27T14:00:34.737Z,17.80
2023-04-27T14:03:04.940Z,17.70
2023-04-27T14:05:32.999Z,17.90
2023-04-27T14:08:00.854Z,17.80
2023-04-27T14:10:28.689Z,17.90
2023-04-27T14:12:57.526Z,18.60
2023-04-27T14:15:25.427Z,18.30
2023-04-27T14:17:53.301Z,18.10
2023-04-27T14:20:22.569Z,17.50
2023-04-27T14:22:50.398Z,17.20
2023-04-27T14:25:18.573Z,17.90
2023-04-27T14:27:46.381Z,17.40
2023-04-27T14:30:15.484Z,17.30
2023-04-27T14:32:43.341Z,17.60
2023-04-27T14:35:11.211Z,17.30
2023-04-27T14:37:40.449Z,17.10
2023-04-27T14:40:10.244Z,17.10
2023-04-27T14:42:38.030Z,17.10
2023-04-27T14:45:06.829Z,16.70
2023-04-27T14:47:34.644Z,16.30
2023-04-27T14:50:02.530Z,16.50
2023-04-27T14:52:30.742Z,16.60
2023-04-27T14:55:00.726Z,16.70
2023-04-27T14:57:28.564Z,17.30
2023-04-27T14:59:56.996Z,17.30
2023-04-27T15:02:24.910Z,17.20
2023-04-27T15:04:52.831Z,17.20
2023-04-27T15:07:21.431Z,17.60
2023-04-27T15:09:49.411Z,17.90
2023-04-27T15:12:18.566Z,18.30
2023-04-27T15:14:46.383Z,18.20
2023-04-27T15:17:14.387Z,18.30
2023-04-27T15:19:42.236Z,17.90
2023-04-27T15:22:10.273Z,17.00
2023-04-27T15:24:38.128Z,16.80
2023-04-27T15:27:07.769Z,17.00
2023-04-27T15:29:38.813Z,17.10
2023-04-27T15:32:06.641Z,17.20
2023-04-27T15:34:34.439Z,16.90
2023-04-27T15:37:02.941Z,16.70
2023-04-27T15:39:31.082Z,16.60
2023-04-27T15:41:59.757Z,16.80
2023-04-27T15:44:27.896Z,17.00
2023-04-27T15:46:57.052Z,17.20
2023-04-27T15:49:24.871Z,17.50
2023-04-27T15:51:55.191Z,17.40
2023-04-27T15:54:23.080Z,17.10
2023-04-27T15:56:51.057Z,17.10
2023-04-27T15:59:19.004Z,17.10
2023-04-27T16:01:46.875Z,17.00
2023-04-27T16:04:16.429Z,16.90
2023-04-27T16:06:44.416Z,16.80
2023-04-27T16:09:12.398Z,16.90
2023-04-27T16:11:40.466Z,16.70
2023-04-27T16:14:08.256Z,16.60
2023-04-27T16:16:36.260Z,16.60
2023-04-27T16:19:04.383Z,16.70
2023-04-27T16:21:33.976Z,16.70
2023-04-27T16:24:01.903Z,16.80
2023-04-27T16:26:29.699Z,16.60
2023-04-27T16:28:57.517Z,16.60
2023-04-27T16:31:25.631Z,16.90
2023-04-27T16:33:53.513Z,16.70
2023-04-27T16:36:21.477Z,16.80
2023-04-27T16:38:50.579Z,17.00
2023-04-27T16:41:18.388Z,17.10
2023-04-27T16:43:46.239Z,17.30
2023-04-27T16:46:14.788Z,17.20
2023-04-27T16:48:42.638Z,17.20
2023-04-27T16:51:10.731Z,17.30
2023-04-27T16:53:38.565Z,17.10
2023-04-27T16:56:09.972Z,16.70
2023-04-27T16:58:37.780Z,16.30
2023-04-27T17:01:05.662Z,16.20
2023-04-27T17:03:34.762Z,16.00
2023-04-27T17:06:03.001Z,15.90
2023-04-27T17:08:30.956Z,15.80
2023-04-27T17:10:58.789Z,16.00
2023-04-27T17:13:27.928Z,16.00
2023-04-27T17:15:55.747Z,15.90
2023-04-27T17:18:23.535Z,15.90
2023-04-27T17:20:51.298Z,16.00
2023-04-27T17:23:19.080Z,16.00
2023-04-27T17:25:47.016Z,16.20
2023-04-27T17:28:14.895Z,16.40
2023-04-27T17:30:44.068Z,16.50
2023-04-27T17:33:12.004Z,16.40
2023-04-27T17:35:39.833Z,16.10
2023-04-27T17:38:07.645Z,16.00
2023-04-27T17:40:35.558Z,15.80
2023-04-27T17:43:03.369Z,15.70
2023-04-27T17:45:31.917Z,15.40
2023-04-27T17:48:01.108Z,15.20
2023-04-27T17:50:30.564Z,15.00
2023-04-27T17:52:58.803Z,14.90
2023-04-27T17:55:27.059Z,14.80
2023-04-27T17:57:54.836Z,14.80
2023-04-27T18:00:23.583Z,14.60
2023-04-27T18:02:51.790Z,14.50
2023-04-27T18:05:21.063Z,14.30
2023-04-27T18:07:50.049Z,14.00
2023-04-27T18:10:17.951Z,13.80
2023-04-27T18:12:45.801Z,13.60
2023-04-27T18:15:13.631Z,13.40
2023-04-27T18:17:41.528Z,13.20
2023-04-27T18:20:10.714Z,13.10
2023-04-27T18:22:41.159Z,13.00
2023-04-27T18:25:10.470Z,12.90
2023-04-27T18:27:38.505Z,12.70
2023-04-27T18:30:08.244Z,12.50
2023-04-27T18:32:36.206Z,12.30
2023-04-27T18:35:04.730Z,12.20
2023-04-27T18:37:33.149Z,12.10
2023-04-27T18:40:02.435Z,12.00
2023-04-27T18:42:30.422Z,11.90
2023-04-27T18:45:01.712Z,11.80
2023-04-27T18:47:29.606Z,11.80
2023-04-27T18:49:57.452Z,11.70
2023-04-27T18:52:25.297Z,11.70
2023-04-27T18:54:53.136Z,11.70
2023-04-27T18:57:22.298Z,11.70
2023-04-27T18:59:50.103Z,11.70
2023-04-27T19:02:17.938Z,11.70
2023-04-27T19:04:52.768Z,11.80
2023-04-27T19:07:25.392Z,11.90
2023-04-27T19:09:54.929Z,11.90
2023-04-27T19:12:24.607Z,11.90
2023-04-27T19:14:52.984Z,11.80
2023-04-27T19:17:21.199Z,11.80
2023-04-27T19:19:49.133Z,11.80
2023-04-27T19:22:16.988Z,11.60
2023-04-27T19:24:44.812Z,11.60
2023-04-27T19:27:12.656Z,11.60
2023-04-27T19:29:53.750Z,11.50
2023-04-27T19:32:22.136Z,11.60
2023-04-27T19:34:50.014Z,11.50
2023-04-27T19:37:17.999Z,11.50
2023-04-27T19:39:45.830Z,11.50
2023-04-27T19:42:14.087Z,11.50
2023-04-27T19:44:41.981Z,11.40
2023-04-27T19:47:11.717Z,11.40
2023-04-27T19:49:39.976Z,11.40
2023-04-27T19:52:07.964Z,11.40
2023-04-27T19:54:38.251Z,11.40
2023-04-27T19:57:06.376Z,11.30
2023-04-27T19:59:34.251Z,11.30
2023-04-27T20:02:02.487Z,11.30
2023-04-27T20:04:32.966Z,11.40
2023-04-27T20:07:01.787Z,11.40
2023-04-27T20:09:30.213Z,11.40
2023-04-27T20:11:58.148Z,11.40
2023-04-27T20:14:28.985Z,11.40
2023-04-27T20:16:56.842Z,11.40
2023-04-27T20:19:25.196Z,11.60
2023-04-27T20:21:54.397Z,11.70
2023-04-27T20:24:22.663Z,11.80
2023-04-27T20:26:50.698Z,11.70
2023-04-27T20:29:18.561Z,11.60
2023-04-27T20:31:48.409Z,11.30
2023-04-27T20:34:16.633Z,11.10
2023-04-27T20:36:44.571Z,11.10
2023-04-27T20:39:14.541Z,11.00
2023-04-27T20:41:42.692Z,11.00
2023-04-27T20:44:11.723Z,11.00
2023-04-27T20:46:39.780Z,11.00
2023-04-27T20:49:07.669Z,11.00
2023-04-27T20:51:36.522Z,10.90
2023-04-27T20:54:04.352Z,10.80
2023-04-27T20:56:33.759Z,10.70
2023-04-27T20:59:01.588Z,10.50
2023-04-27T21:01:29.495Z,10.50
2023-04-27T21:03:57.406Z,10.50
2023-04-27T21:06:25.262Z,10.40
2023-04-27T21:08:53.062Z,10.40
2023-04-27T21:11:21.250Z,10.40
2023-04-27T21:13:50.449Z,10.40
2023-04-27T21:16:18.326Z,10.50
2023-04-27T21:18:46.116Z,10.50
2023-04-27T21:21:14.007Z,10.50
2023-04-27T21:23:41.836Z,10.40
2023-04-27T21:26:09.818Z,10.40
2023-04-27T21:28:37.919Z,10.30
2023-04-27T21:31:07.697Z,10.30
2023-04-27T21:33:35.510Z,10.30
2023-04-27T21:36:04.713Z,10.30
2023-04-27T21:38:32.536Z,10.40
2023-04-27T21:41:00.446Z,10.50
2023-04-27T21:43:28.507Z,10.40
2023-04-27T21:45:56.360Z,10.40
2023-04-27T21:48:25.524Z,10.50
2023-04-27T21:50:53.367Z,10.40
2023-04-27T21:53:21.152Z,10.40
2023-04-27T21:55:49.472Z,10.50
2023-04-27T21:58:17.386Z,10.60
2023-04-27T22:00:45.234Z,10.70
2023-04-27T22:03:13.137Z,10.60
2023-04-27T22:05:42.443Z,10.60
2023-04-27T22:08:10.195Z,10.50
2023-04-27T22:10:38.010Z,10.40
2023-04-27T22:13:17.550Z,10.30
2023-04-27T22:15:46.197Z,10.30
2023-04-27T22:18:15.292Z,10.20
2023-04-27T22:20:44.559Z,10.20
2023-04-27T22:23:12.373Z,10.20
2023-04-27T22:25:42.643Z,10.30
2023-04-27T22:28:10.629Z,10.30
2023-04-27T22:30:38.757Z,10.50
2023-04-27T22:33:06.727Z,10.30
2023-04-27T22:35:34.979Z,10.20
2023-04-27T22:38:04.206Z,10.20
2023-04-27T22:40:32.002Z,10.20
2023-04-27T22:42:59.787Z,10.10
2023-04-27T22:45:27.557Z,10.30
2023-04-27T22:47:55.383Z,10.30
2023-04-27T22:50:23.201Z,10.30
2023-04-27T22:52:52.982Z,10.40
2023-04-27T22:55:22.329Z,10.50
2023-04-27T22:57:50.750Z,10.60
2023-04-27T23:00:18.826Z,10.80
2023-04-27T23:02:47.265Z,10.80
2023-04-27T23:05:15.149Z,10.70
2023-04-27T23:07:43.441Z,10.60
2023-04-27T23:10:12.920Z,10.50
2023-04-27T23:12:42.061Z,10.50
2023-04-27T23:15:10.708Z,10.60
2023-04-27T23:17:38.514Z,10.70
2023-04-27T23:20:24.173Z,10.70
2023-04-27T23:22:54.952Z,10.70
2023-04-27T23:25:22.749Z,10.60
2023-04-27T23:27:52.764Z,10.70
2023-04-27T23:30:21.331Z,10.70
2023-04-27T23:32:49.241Z,10.70
2023-04-27T23:35:17.105Z,10.70
2023-04-27T23:37:44.947Z,10.70
2023-04-27T23:40:14.069Z,10.80
2023-04-27T23:42:41.937Z,10.70
2023-04-27T23:45:12.160Z,10.70
2023-04-27T23:47:40.046Z,10.60
2023-04-27T23:50:08.760Z,10.60
2023-04-27T23:52:37.079Z,10.60
2023-04-27T23:55:05.453Z,10.50
2023-04-27T23:57:33.231Z,10.30
